KPEZ

Pleasanton Municipal Airport

Pleasanton, Texas, USA
METAR KPEZ 211435Z AUTO 05005KT 10SM OVC008 22/21 A3001 RMK AO2 T02200206
Observed Flight Rules
May-21 @ 14:35 UTC (17 minutes ago) Instrument Flight Rules
Wind Visibility Clouds
50° at 5 knots 10 miles
  • Overcast at 800' AGL
Temperatures Readings
Current 22°C / 72°F
Dewpoint 21°C / 70°F
Humidity 94%
Altimeter 30.01" Hg
Pressure 1016 hPa
Elevation 132
METAR KPEZ 211435Z AUTO 05005KT 10SM OVC008 22/21 A3001 RMK AO2 T02200206
Observed Flight Rules
May-21 @ 14:35 UTC
(17 minutes ago)
IFR
Wind Visibility
50° at 5 knots 10 miles
Clouds
  • Overcast at 800' AGL
Temperature Dewpoint
22°C / 72°F 21°C / 70°F
Humidity Altimeter Pressure
94% 30.01" Hg 1016 hPa